Austinville, Iowa
Current Conditions -  °F | °C
As of 5:55 PM on Sunday 23 Nov 2014 (Local Time) from KIFA Reporting Station
Overcast Overcast  
Wind Chill: 33°   Ceiling: 1100
Heat Index: 43°   Visibility: 10mi
Dew Point: 40°   Wind: 25mph
Humidity: 88%   Direction: 320°NW
Pressure: 29.36"   Gusts: 32mph
Location:  42.59°N, 92.96°W
Report Text: KIFA 232355Z AUTO 32022G28KT 10SM BKN011 OVC017 06/04 A2936 RMK AO2 60003 T00600042 10105 20060
Loading
Personal Weather Stations






























Interactive Weather Map New forecast layout! Learn more

10-Day Weather Forecast

Advertisements
Track Severe Weather on mobile